sensor_id;sensor_type;location;lat;lon;timestamp;pressure;altitude;pressure_sealevel;temperature;humidity
70011;BME280;59543;37.950;-122.338;2022-09-24T00:01:32;101058.97;;;28.03;36.92
70011;BME280;59543;37.950;-122.338;2022-09-24T00:04:09;101058.53;;;27.50;38.05
70011;BME280;59543;37.950;-122.338;2022-09-24T00:06:56;101055.38;;;27.80;38.19
70011;BME280;59543;37.950;-122.338;2022-09-24T00:09:22;101064.09;;;27.72;38.81
70011;BME280;59543;37.950;-122.338;2022-09-24T00:11:49;101061.94;;;27.57;39.06
70011;BME280;59543;37.950;-122.338;2022-09-24T00:14:17;101047.28;;;27.18;40.15
70011;BME280;59543;37.950;-122.338;2022-09-24T00:16:44;101054.78;;;27.40;40.49
70011;BME280;59543;37.950;-122.338;2022-09-24T00:19:12;101054.44;;;27.19;41.72
70011;BME280;59543;37.950;-122.338;2022-09-24T00:21:39;101067.22;;;26.91;43.78
70011;BME280;59543;37.950;-122.338;2022-09-24T00:24:14;101065.72;;;26.84;44.10
70011;BME280;59543;37.950;-122.338;2022-09-24T00:27:01;101057.59;;;26.77;44.34
70011;BME280;59543;37.950;-122.338;2022-09-24T00:29:28;101068.63;;;26.60;44.79
70011;BME280;59543;37.950;-122.338;2022-09-24T00:31:57;101068.44;;;25.98;46.24
70011;BME280;59543;37.950;-122.338;2022-09-24T00:34:23;101072.13;;;26.15;46.21
70011;BME280;59543;37.950;-122.338;2022-09-24T00:36:49;101074.81;;;25.75;46.98
70011;BME280;59543;37.950;-122.338;2022-09-24T00:39:18;101078.53;;;25.92;46.69
70011;BME280;59543;37.950;-122.338;2022-09-24T00:41:44;101082.97;;;25.58;47.12
70011;BME280;59543;37.950;-122.338;2022-09-24T00:49:36;101077.25;;;25.24;48.55
70011;BME280;59543;37.950;-122.338;2022-09-24T00:52:04;101079.91;;;24.89;48.58
70011;BME280;59543;37.950;-122.338;2022-09-24T00:54:30;101078.34;;;24.93;48.61
70011;BME280;59543;37.950;-122.338;2022-09-24T00:56:58;101086.09;;;24.84;48.45
70011;BME280;59543;37.950;-122.338;2022-09-24T00:59:26;101089.47;;;24.56;48.96
70011;BME280;59543;37.950;-122.338;2022-09-24T01:01:53;101090.25;;;24.45;49.51
70011;BME280;59543;37.950;-122.338;2022-09-24T01:04:23;101088.75;;;24.49;49.87
70011;BME280;59543;37.950;-122.338;2022-09-24T01:06:51;101089.06;;;24.23;50.31
70011;BME280;59543;37.950;-122.338;2022-09-24T01:09:19;101089.06;;;24.23;50.26
70011;BME280;59543;37.950;-122.338;2022-09-24T01:12:03;101098.16;;;23.86;51.99
70011;BME280;59543;37.950;-122.338;2022-09-24T01:15:02;101100.28;;;23.84;51.88
70011;BME280;59543;37.950;-122.338;2022-09-24T01:30:58;101092.81;;;23.91;51.85
70011;BME280;59543;37.950;-122.338;2022-09-24T01:33:27;101095.16;;;24.06;51.94
70011;BME280;59543;37.950;-122.338;2022-09-24T01:35:59;101102.03;;;23.97;51.58
70011;BME280;59543;37.950;-122.338;2022-09-24T01:38:34;101098.09;;;23.93;52.08
70011;BME280;59543;37.950;-122.338;2022-09-24T01:41:04;101100.66;;;23.69;52.51
70011;BME280;59543;37.950;-122.338;2022-09-24T01:43:33;101106.03;;;23.83;52.76
70011;BME280;59543;37.950;-122.338;2022-09-24T01:46:02;101110.91;;;23.56;53.56
70011;BME280;59543;37.950;-122.338;2022-09-24T01:48:40;101106.72;;;23.28;53.93
70011;BME280;59543;37.950;-122.338;2022-09-24T01:53:47;101101.91;;;23.23;54.10
70011;BME280;59543;37.950;-122.338;2022-09-24T01:56:22;101113.66;;;23.05;54.72
70011;BME280;59543;37.950;-122.338;2022-09-24T01:59:00;101109.00;;;23.06;55.14
70011;BME280;59543;37.950;-122.338;2022-09-24T02:02:14;101102.06;;;23.03;55.10
70011;BME280;59543;37.950;-122.338;2022-09-24T02:04:43;101114.25;;;22.76;55.46
70011;BME280;59543;37.950;-122.338;2022-09-24T02:07:17;101105.69;;;22.66;55.95
70011;BME280;59543;37.950;-122.338;2022-09-24T02:09:46;101114.16;;;22.57;56.42
70011;BME280;59543;37.950;-122.338;2022-09-24T02:12:23;101113.91;;;22.66;55.86
70011;BME280;59543;37.950;-122.338;2022-09-24T02:14:59;101115.47;;;22.48;56.73
70011;BME280;59543;37.950;-122.338;2022-09-24T02:17:30;101118.09;;;22.23;57.56
70011;BME280;59543;37.950;-122.338;2022-09-24T02:20:01;101124.00;;;22.20;57.35
70011;BME280;59543;37.950;-122.338;2022-09-24T02:22:29;101124.03;;;22.07;57.77
70011;BME280;59543;37.950;-122.338;2022-09-24T02:25:01;101123.00;;;21.95;57.83
70011;BME280;59543;37.950;-122.338;2022-09-24T02:27:29;101118.41;;;21.82;58.04
70011;BME280;59543;37.950;-122.338;2022-09-24T02:29:57;101128.13;;;21.71;58.39
70011;BME280;59543;37.950;-122.338;2022-09-24T02:32:27;101125.81;;;21.81;58.45
70011;BME280;59543;37.950;-122.338;2022-09-24T02:34:59;101129.38;;;21.68;59.04
70011;BME280;59543;37.950;-122.338;2022-09-24T02:37:27;101134.06;;;21.48;59.36
70011;BME280;59543;37.950;-122.338;2022-09-24T02:39:54;101126.63;;;21.68;58.79
70011;BME280;59543;37.950;-122.338;2022-09-24T02:42:21;101136.16;;;21.53;58.80
70011;BME280;59543;37.950;-122.338;2022-09-24T02:44:48;101137.16;;;21.72;58.03
70011;BME280;59543;37.950;-122.338;2022-09-24T02:47:14;101136.16;;;21.39;58.34
70011;BME280;59543;37.950;-122.338;2022-09-24T02:49:41;101132.34;;;21.34;58.84
70011;BME280;59543;37.950;-122.338;2022-09-24T02:52:07;101146.88;;;21.48;58.08
70011;BME280;59543;37.950;-122.338;2022-09-24T02:54:34;101140.16;;;21.37;58.02
70011;BME280;59543;37.950;-122.338;2022-09-24T02:57:01;101152.34;;;21.41;57.92
70011;BME280;59543;37.950;-122.338;2022-09-24T02:59:27;101153.84;;;21.37;58.04
70011;BME280;59543;37.950;-122.338;2022-09-24T03:01:53;101159.94;;;21.39;57.98
70011;BME280;59543;37.950;-122.338;2022-09-24T03:04:19;101165.38;;;21.26;58.55
70011;BME280;59543;37.950;-122.338;2022-09-24T03:06:46;101168.28;;;21.04;59.47
70011;BME280;59543;37.950;-122.338;2022-09-24T03:09:13;101166.81;;;21.08;59.47
70011;BME280;59543;37.950;-122.338;2022-09-24T03:11:39;101165.75;;;21.02;59.83
70011;BME280;59543;37.950;-122.338;2022-09-24T03:14:06;101169.97;;;20.98;59.96
70011;BME280;59543;37.950;-122.338;2022-09-24T03:16:32;101172.47;;;20.87;60.74
70011;BME280;59543;37.950;-122.338;2022-09-24T03:18:58;101177.53;;;20.96;60.60
70011;BME280;59543;37.950;-122.338;2022-09-24T03:21:24;101181.56;;;21.07;60.51
70011;BME280;59543;37.950;-122.338;2022-09-24T03:23:51;101180.06;;;20.91;60.67
70011;BME280;59543;37.950;-122.338;2022-09-24T03:26:17;101185.31;;;20.93;60.60
70011;BME280;59543;37.950;-122.338;2022-09-24T03:28:44;101195.38;;;20.86;60.56
70011;BME280;59543;37.950;-122.338;2022-09-24T03:31:10;101202.91;;;20.70;61.14
70011;BME280;59543;37.950;-122.338;2022-09-24T03:33:41;101208.97;;;20.66;61.54
70011;BME280;59543;37.950;-122.338;2022-09-24T03:36:14;101206.69;;;20.69;61.72
70011;BME280;59543;37.950;-122.338;2022-09-24T03:38:41;101206.69;;;20.69;61.89
70011;BME280;59543;37.950;-122.338;2022-09-24T03:41:09;101217.97;;;20.53;62.22
70011;BME280;59543;37.950;-122.338;2022-09-24T03:43:36;101220.03;;;20.51;62.40
70011;BME280;59543;37.950;-122.338;2022-09-24T03:46:03;101219.13;;;20.37;62.91
70011;BME280;59543;37.950;-122.338;2022-09-24T03:48:33;101220.22;;;20.43;62.73
70011;BME280;59543;37.950;-122.338;2022-09-24T03:51:11;101219.03;;;20.52;62.38
70011;BME280;59543;37.950;-122.338;2022-09-24T03:53:38;101226.94;;;20.47;62.72
70011;BME280;59543;37.950;-122.338;2022-09-24T03:56:05;101228.41;;;20.43;63.05
70011;BME280;59543;37.950;-122.338;2022-09-24T03:58:34;101229.88;;;20.45;62.95
70011;BME280;59543;37.950;-122.338;2022-09-24T04:01:07;101232.59;;;20.45;63.17
70011;BME280;59543;37.950;-122.338;2022-09-24T04:03:34;101232.38;;;20.40;63.33
70011;BME280;59543;37.950;-122.338;2022-09-24T04:06:01;101234.59;;;20.23;63.87
70011;BME280;59543;37.950;-122.338;2022-09-24T04:08:27;101231.22;;;20.21;63.97
70011;BME280;59543;37.950;-122.338;2022-09-24T04:10:53;101232.63;;;20.10;64.54
70011;BME280;59543;37.950;-122.338;2022-09-24T04:13:20;101230.16;;;20.16;64.57
70011;BME280;59543;37.950;-122.338;2022-09-24T04:15:46;101239.56;;;20.13;65.17
70011;BME280;59543;37.950;-122.338;2022-09-24T04:18:15;101235.13;;;20.12;64.95
70011;BME280;59543;37.950;-122.338;2022-09-24T04:20:41;101236.59;;;20.08;64.87
70011;BME280;59543;37.950;-122.338;2022-09-24T04:23:09;101234.25;;;20.05;65.00
70011;BME280;59543;37.950;-122.338;2022-09-24T04:25:36;101236.75;;;20.00;65.28
70011;BME280;59543;37.950;-122.338;2022-09-24T04:28:04;101236.28;;;19.96;65.42
70011;BME280;59543;37.950;-122.338;2022-09-24T04:30:32;101234.19;;;19.92;65.13
70011;BME280;59543;37.950;-122.338;2022-09-24T04:33:00;101234.91;;;19.79;65.39
70011;BME280;59543;37.950;-122.338;2022-09-24T04:35:29;101231.72;;;19.75;65.92
70011;BME280;59543;37.950;-122.338;2022-09-24T04:37:56;101227.91;;;19.70;66.30
70011;BME280;59543;37.950;-122.338;2022-09-24T04:40:22;101237.31;;;19.67;66.00
70011;BME280;59543;37.950;-122.338;2022-09-24T04:42:48;101235.94;;;19.56;66.36
70011;BME280;59543;37.950;-122.338;2022-09-24T04:45:15;101237.97;;;19.48;66.65
70011;BME280;59543;37.950;-122.338;2022-09-24T04:47:45;101237.34;;;19.52;67.03
70011;BME280;59543;37.950;-122.338;2022-09-24T04:50:12;101239.63;;;19.49;66.83
70011;BME280;59543;37.950;-122.338;2022-09-24T04:52:38;101242.53;;;19.40;67.51
70011;BME280;59543;37.950;-122.338;2022-09-24T04:55:05;101245.25;;;19.40;67.47
70011;BME280;59543;37.950;-122.338;2022-09-24T04:57:32;101240.38;;;19.36;67.45
70011;BME280;59543;37.950;-122.338;2022-09-24T05:00:07;101236.34;;;19.32;67.75
70011;BME280;59543;37.950;-122.338;2022-09-24T05:02:33;101240.69;;;19.26;67.98
70011;BME280;59543;37.950;-122.338;2022-09-24T05:05:00;101246.31;;;19.25;68.15
70011;BME280;59543;37.950;-122.338;2022-09-24T05:07:26;101248.59;;;19.21;68.46
70011;BME280;59543;37.950;-122.338;2022-09-24T05:09:52;101248.53;;;19.14;68.85
70011;BME280;59543;37.950;-122.338;2022-09-24T05:12:18;101252.41;;;19.05;69.17
70011;BME280;59543;37.950;-122.338;2022-09-24T05:14:45;101246.31;;;19.03;69.80
70011;BME280;59543;37.950;-122.338;2022-09-24T05:17:13;101248.31;;;18.94;69.58
70011;BME280;59543;37.950;-122.338;2022-09-24T05:19:39;101243.22;;;18.91;69.78
70011;BME280;59543;37.950;-122.338;2022-09-24T05:22:05;101245.13;;;18.91;69.95
70011;BME280;59543;37.950;-122.338;2022-09-24T05:24:32;101239.38;;;18.86;69.82
70011;BME280;59543;37.950;-122.338;2022-09-24T05:26:58;101243.94;;;18.79;70.02
70011;BME280;59543;37.950;-122.338;2022-09-24T05:29:41;101254.53;;;18.73;70.00
70011;BME280;59543;37.950;-122.338;2022-09-24T05:32:13;101252.00;;;18.72;70.34
70011;BME280;59543;37.950;-122.338;2022-09-24T05:34:42;101255.19;;;18.61;70.38
70011;BME280;59543;37.950;-122.338;2022-09-24T05:37:09;101243.63;;;18.59;70.57
70011;BME280;59543;37.950;-122.338;2022-09-24T05:39:36;101247.31;;;18.51;70.87
70011;BME280;59543;37.950;-122.338;2022-09-24T05:42:02;101254.06;;;18.55;70.55
70011;BME280;59543;37.950;-122.338;2022-09-24T05:44:30;101250.88;;;18.51;70.30
70011;BME280;59543;37.950;-122.338;2022-09-24T05:46:56;101249.94;;;18.44;70.75
70011;BME280;59543;37.950;-122.338;2022-09-24T05:49:23;101252.38;;;18.39;70.80
70011;BME280;59543;37.950;-122.338;2022-09-24T05:51:50;101256.41;;;18.43;70.29
70011;BME280;59543;37.950;-122.338;2022-09-24T05:54:17;101258.22;;;18.36;70.95
70011;BME280;59543;37.950;-122.338;2022-09-24T05:56:43;101258.38;;;18.35;70.45
70011;BME280;59543;37.950;-122.338;2022-09-24T05:59:11;101253.13;;;18.33;70.72
70011;BME280;59543;37.950;-122.338;2022-09-24T06:01:37;101254.44;;;18.22;71.34
70011;BME280;59543;37.950;-122.338;2022-09-24T06:04:04;101260.25;;;18.19;71.26
70011;BME280;59543;37.950;-122.338;2022-09-24T06:06:30;101262.50;;;18.16;71.51
70011;BME280;59543;37.950;-122.338;2022-09-24T06:08:56;101261.19;;;18.12;71.75
70011;BME280;59543;37.950;-122.338;2022-09-24T06:11:23;101256.59;;;18.12;72.07
70011;BME280;59543;37.950;-122.338;2022-09-24T06:13:49;101252.53;;;17.93;73.50
70011;BME280;59543;37.950;-122.338;2022-09-24T06:16:16;101255.44;;;17.92;72.86
70011;BME280;59543;37.950;-122.338;2022-09-24T06:18:43;101256.09;;;17.94;72.82
70011;BME280;59543;37.950;-122.338;2022-09-24T06:21:11;101255.88;;;17.80;73.40
70011;BME280;59543;37.950;-122.338;2022-09-24T06:23:39;101256.00;;;17.87;74.04
70011;BME280;59543;37.950;-122.338;2022-09-24T06:26:08;101249.41;;;17.81;73.94
70011;BME280;59543;37.950;-122.338;2022-09-24T06:28:36;101251.94;;;17.83;73.58
70011;BME280;59543;37.950;-122.338;2022-09-24T06:31:02;101254.03;;;17.81;74.21
70011;BME280;59543;37.950;-122.338;2022-09-24T06:33:29;101260.22;;;17.67;74.95
70011;BME280;59543;37.950;-122.338;2022-09-24T06:35:59;101258.09;;;17.77;75.02
70011;BME280;59543;37.950;-122.338;2022-09-24T06:38:26;101256.06;;;17.79;74.78
70011;BME280;59543;37.950;-122.338;2022-09-24T06:40:52;101253.50;;;17.77;74.76
70011;BME280;59543;37.950;-122.338;2022-09-24T06:43:18;101263.88;;;17.82;74.86
70011;BME280;59543;37.950;-122.338;2022-09-24T06:45:44;101258.09;;;17.77;74.91
70011;BME280;59543;37.950;-122.338;2022-09-24T06:48:12;101265.91;;;17.80;74.73
70011;BME280;59543;37.950;-122.338;2022-09-24T06:50:40;101262.28;;;17.65;75.35
70011;BME280;59543;37.950;-122.338;2022-09-24T06:53:09;101258.28;;;17.75;75.45
70011;BME280;59543;37.950;-122.338;2022-09-24T06:55:37;101263.59;;;17.69;75.35
70011;BME280;59543;37.950;-122.338;2022-09-24T06:58:13;101263.72;;;17.52;76.12
70011;BME280;59543;37.950;-122.338;2022-09-24T07:00:41;101265.06;;;17.56;75.24
70011;BME280;59543;37.950;-122.338;2022-09-24T07:03:15;101260.88;;;17.69;74.46
70011;BME280;59543;37.950;-122.338;2022-09-24T07:05:41;101262.38;;;17.71;74.40
70011;BME280;59543;37.950;-122.338;2022-09-24T07:08:07;101257.94;;;17.55;74.46
70011;BME280;59543;37.950;-122.338;2022-09-24T07:10:33;101260.13;;;17.60;74.68
70011;BME280;59543;37.950;-122.338;2022-09-24T07:13:00;101263.84;;;17.59;74.62
70011;BME280;59543;37.950;-122.338;2022-09-24T07:15:26;101268.09;;;17.62;74.40
70011;BME280;59543;37.950;-122.338;2022-09-24T07:17:55;101272.78;;;17.45;75.04
70011;BME280;59543;37.950;-122.338;2022-09-24T07:20:23;101262.69;;;17.53;74.75
70011;BME280;59543;37.950;-122.338;2022-09-24T07:22:49;101264.47;;;17.46;75.03
70011;BME280;59543;37.950;-122.338;2022-09-24T07:25:16;101265.34;;;17.38;75.53
70011;BME280;59543;37.950;-122.338;2022-09-24T07:27:42;101273.75;;;17.29;76.10
70011;BME280;59543;37.950;-122.338;2022-09-24T07:30:08;101273.88;;;17.35;75.86
70011;BME280;59543;37.950;-122.338;2022-09-24T07:32:35;101282.28;;;17.26;75.92
70011;BME280;59543;37.950;-122.338;2022-09-24T07:35:01;101271.75;;;17.23;75.98
70011;BME280;59543;37.950;-122.338;2022-09-24T07:37:27;101276.75;;;17.11;76.40
70011;BME280;59543;37.950;-122.338;2022-09-24T07:39:57;101275.75;;;17.12;76.30
70011;BME280;59543;37.950;-122.338;2022-09-24T07:42:24;101274.94;;;17.03;76.20
70011;BME280;59543;37.950;-122.338;2022-09-24T07:44:51;101273.56;;;17.07;76.01
70011;BME280;59543;37.950;-122.338;2022-09-24T07:47:17;101276.81;;;17.03;75.48
70011;BME280;59543;37.950;-122.338;2022-09-24T07:49:43;101273.28;;;16.94;75.20
70011;BME280;59543;37.950;-122.338;2022-09-24T07:52:10;101274.31;;;16.93;75.46
70011;BME280;59543;37.950;-122.338;2022-09-24T07:54:37;101274.00;;;16.88;75.05
70011;BME280;59543;37.950;-122.338;2022-09-24T07:57:11;101267.91;;;16.86;74.91
70011;BME280;59543;37.950;-122.338;2022-09-24T07:59:38;101272.16;;;16.80;75.11
70011;BME280;59543;37.950;-122.338;2022-09-24T08:02:14;101269.63;;;16.79;74.90
70011;BME280;59543;37.950;-122.338;2022-09-24T08:04:42;101274.38;;;16.68;74.29
70011;BME280;59543;37.950;-122.338;2022-09-24T08:07:10;101268.56;;;16.32;69.83
70011;BME280;59543;37.950;-122.338;2022-09-24T08:09:36;101275.53;;;16.35;69.94
70011;BME280;59543;37.950;-122.338;2022-09-24T08:12:03;101278.38;;;16.41;69.33
70011;BME280;59543;37.950;-122.338;2022-09-24T08:14:30;101269.75;;;16.38;68.72
70011;BME280;59543;37.950;-122.338;2022-09-24T08:16:56;101273.31;;;16.38;66.84
70011;BME280;59543;37.950;-122.338;2022-09-24T08:19:22;101266.56;;;16.26;65.02
70011;BME280;59543;37.950;-122.338;2022-09-24T08:21:48;101276.06;;;16.22;64.53
70011;BME280;59543;37.950;-122.338;2022-09-24T08:24:15;101274.72;;;16.18;64.26
70011;BME280;59543;37.950;-122.338;2022-09-24T08:26:42;101279.81;;;16.13;63.63
70011;BME280;59543;37.950;-122.338;2022-09-24T08:29:08;101269.47;;;16.08;63.56
70011;BME280;59543;37.950;-122.338;2022-09-24T08:31:35;101274.22;;;16.06;63.25
70011;BME280;59543;37.950;-122.338;2022-09-24T08:34:02;101273.91;;;16.01;62.32
70011;BME280;59543;37.950;-122.338;2022-09-24T08:36:28;101272.22;;;15.84;61.50
70011;BME280;59543;37.950;-122.338;2022-09-24T08:38:54;101273.25;;;15.83;61.98
70011;BME280;59543;37.950;-122.338;2022-09-24T08:46:41;101281.72;;;15.80;61.90
70011;BME280;59543;37.950;-122.338;2022-09-24T08:49:35;101289.19;;;15.77;62.18
70011;BME280;59543;37.950;-122.338;2022-09-24T08:52:22;101285.28;;;15.72;62.13
70011;BME280;59543;37.950;-122.338;2022-09-24T08:54:51;101291.19;;;15.67;61.83
70011;BME280;59543;37.950;-122.338;2022-09-24T08:57:18;101287.94;;;15.64;61.94
70011;BME280;59543;37.950;-122.338;2022-09-24T08:59:49;101287.78;;;15.57;62.04
70011;BME280;59543;37.950;-122.338;2022-09-24T09:03:03;101286.44;;;15.53;62.33
70011;BME280;59543;37.950;-122.338;2022-09-24T09:06:01;101294.56;;;15.53;62.69
70011;BME280;59543;37.950;-122.338;2022-09-24T09:11:08;101293.19;;;15.41;62.50
70011;BME280;59543;37.950;-122.338;2022-09-24T09:13:51;101292.84;;;15.36;62.40
70011;BME280;59543;37.950;-122.338;2022-09-24T09:16:33;101299.28;;;15.35;62.01
70011;BME280;59543;37.950;-122.338;2022-09-24T09:19:04;101293.31;;;15.31;61.45
70011;BME280;59543;37.950;-122.338;2022-09-24T09:21:39;101296.38;;;15.28;61.35
70011;BME280;59543;37.950;-122.338;2022-09-24T09:24:17;101310.59;;;15.22;61.37
70011;BME280;59543;37.950;-122.338;2022-09-24T09:26:49;101310.59;;;15.22;60.84
70011;BME280;59543;37.950;-122.338;2022-09-24T09:29:16;101305.50;;;15.11;60.08
70011;BME280;59543;37.950;-122.338;2022-09-24T09:32:04;101304.63;;;15.10;60.07
70011;BME280;59543;37.950;-122.338;2022-09-24T09:34:58;101310.41;;;15.15;60.25
70011;BME280;59543;37.950;-122.338;2022-09-24T09:37:44;101308.72;;;15.14;59.95
70011;BME280;59543;37.950;-122.338;2022-09-24T09:40:31;101297.69;;;15.16;59.86
70011;BME280;59543;37.950;-122.338;2022-09-24T09:43:08;101298.22;;;15.11;60.05
70011;BME280;59543;37.950;-122.338;2022-09-24T09:48:40;101302.56;;;14.96;60.28
70011;BME280;59543;37.950;-122.338;2022-09-24T09:51:17;101295.56;;;14.85;60.88
70011;BME280;59543;37.950;-122.338;2022-09-24T09:54:02;101288.28;;;14.77;61.76
70011;BME280;59543;37.950;-122.338;2022-09-24T09:56:42;101290.66;;;14.80;61.68
70011;BME280;59543;37.950;-122.338;2022-09-24T10:01:40;101283.19;;;14.82;61.70
70011;BME280;59543;37.950;-122.338;2022-09-24T10:04:38;101291.50;;;14.89;61.35
70011;BME280;59543;37.950;-122.338;2022-09-24T10:07:14;101283.56;;;14.88;61.65
70011;BME280;59543;37.950;-122.338;2022-09-24T10:09:42;101294.53;;;14.86;61.22
70011;BME280;59543;37.950;-122.338;2022-09-24T10:12:20;101288.97;;;14.88;61.37
70011;BME280;59543;37.950;-122.338;2022-09-24T10:15:02;101298.78;;;14.89;61.34
70011;BME280;59543;37.950;-122.338;2022-09-24T10:17:38;101292.53;;;14.88;60.95
70011;BME280;59543;37.950;-122.338;2022-09-24T10:20:26;101292.03;;;14.84;61.13
70011;BME280;59543;37.950;-122.338;2022-09-24T10:23:05;101294.72;;;14.84;61.46
70011;BME280;59543;37.950;-122.338;2022-09-24T10:25:33;101295.75;;;14.83;61.40
70011;BME280;59543;37.950;-122.338;2022-09-24T10:28:06;101292.34;;;14.81;61.20
70011;BME280;59543;37.950;-122.338;2022-09-24T10:31:02;101300.47;;;14.81;61.46
70011;BME280;59543;37.950;-122.338;2022-09-24T10:33:37;101299.13;;;14.77;61.56
70011;BME280;59543;37.950;-122.338;2022-09-24T10:36:06;101298.41;;;14.75;61.65
70011;BME280;59543;37.950;-122.338;2022-09-24T10:38:33;101299.59;;;14.73;61.74
70011;BME280;59543;37.950;-122.338;2022-09-24T10:40:59;101296.00;;;14.64;61.69
70011;BME280;59543;37.950;-122.338;2022-09-24T10:43:26;101305.66;;;14.67;61.91
70011;BME280;59543;37.950;-122.338;2022-09-24T10:45:59;101290.56;;;14.64;61.79
70011;BME280;59543;37.950;-122.338;2022-09-24T10:48:42;101297.66;;;14.65;61.85
70011;BME280;59543;37.950;-122.338;2022-09-24T10:56:37;101291.53;;;14.55;62.72
70011;BME280;59543;37.950;-122.338;2022-09-24T11:05:03;101299.84;;;14.53;62.85
70011;BME280;59543;37.950;-122.338;2022-09-24T11:16:22;101297.97;;;14.54;63.12
70011;BME280;59543;37.950;-122.338;2022-09-24T11:19:05;101292.00;;;14.50;63.25
70011;BME280;59543;37.950;-122.338;2022-09-24T11:21:53;101298.97;;;14.53;63.23
70011;BME280;59543;37.950;-122.338;2022-09-24T11:35:44;101293.19;;;14.48;63.49
70011;BME280;59543;37.950;-122.338;2022-09-24T11:38:32;101293.19;;;14.48;63.76
70011;BME280;59543;37.950;-122.338;2022-09-24T11:43:54;101290.47;;;14.48;63.83
70011;BME280;59543;37.950;-122.338;2022-09-24T11:50:19;101295.19;;;14.46;63.58
70011;BME280;59543;37.950;-122.338;2022-09-24T11:52:55;101291.97;;;14.42;63.96
70011;BME280;59543;37.950;-122.338;2022-09-24T11:55:50;101292.44;;;14.37;64.28
70011;BME280;59543;37.950;-122.338;2022-09-24T12:01:32;101287.97;;;14.28;64.38
70011;BME280;59543;37.950;-122.338;2022-09-24T12:04:02;101283.22;;;14.22;64.46
70011;BME280;59543;37.950;-122.338;2022-09-24T12:06:44;101287.63;;;14.23;64.45
70011;BME280;59543;37.950;-122.338;2022-09-24T12:09:18;101290.88;;;14.35;65.02
70011;BME280;59543;37.950;-122.338;2022-09-24T12:11:56;101287.31;;;14.26;66.37
70011;BME280;59543;37.950;-122.338;2022-09-24T12:15:01;101291.69;;;14.27;66.76
70011;BME280;59543;37.950;-122.338;2022-09-24T12:20:13;101292.97;;;14.41;66.94
70011;BME280;59543;37.950;-122.338;2022-09-24T12:22:43;101291.53;;;14.29;66.99
70011;BME280;59543;37.950;-122.338;2022-09-24T12:25:11;101292.66;;;14.18;67.29
70011;BME280;59543;37.950;-122.338;2022-09-24T12:27:38;101294.00;;;14.14;67.57
70011;BME280;59543;37.950;-122.338;2022-09-24T12:30:33;101301.09;;;14.15;67.40
70011;BME280;59543;37.950;-122.338;2022-09-24T12:36:02;101299.41;;;14.14;67.96
70011;BME280;59543;37.950;-122.338;2022-09-24T12:38:52;101307.16;;;14.09;67.96
70011;BME280;59543;37.950;-122.338;2022-09-24T12:46:22;101319.22;;;13.97;68.55
70011;BME280;59543;37.950;-122.338;2022-09-24T12:48:50;101319.53;;;13.93;68.42
70011;BME280;59543;37.950;-122.338;2022-09-24T12:51:17;101314.59;;;13.89;68.39
70011;BME280;59543;37.950;-122.338;2022-09-24T12:53:59;101319.16;;;13.88;68.63
70011;BME280;59543;37.950;-122.338;2022-09-24T12:56:30;101330.81;;;13.89;68.46
70011;BME280;59543;37.950;-122.338;2022-09-24T12:58:57;101336.72;;;13.84;68.53
70011;BME280;59543;37.950;-122.338;2022-09-24T13:04:03;101338.47;;;13.93;69.44
70011;BME280;59543;37.950;-122.338;2022-09-24T13:06:31;101337.56;;;13.85;69.48
70011;BME280;59543;37.950;-122.338;2022-09-24T13:08:58;101336.31;;;13.79;69.52
70011;BME280;59543;37.950;-122.338;2022-09-24T13:11:32;101343.41;;;13.80;69.31
70011;BME280;59543;37.950;-122.338;2022-09-24T13:16:46;101349.13;;;13.77;69.44
70011;BME280;59543;37.950;-122.338;2022-09-24T13:19:32;101355.78;;;13.65;69.80
70011;BME280;59543;37.950;-122.338;2022-09-24T13:21:59;101348.81;;;13.62;69.41
70011;BME280;59543;37.950;-122.338;2022-09-24T13:24:30;101357.81;;;13.63;69.45
70011;BME280;59543;37.950;-122.338;2022-09-24T13:27:23;101357.84;;;13.53;69.52
70011;BME280;59543;37.950;-122.338;2022-09-24T13:33:27;101365.72;;;13.46;69.94
70011;BME280;59543;37.950;-122.338;2022-09-24T13:35:41;101363.50;;;13.42;70.05
70011;BME280;59543;37.950;-122.338;2022-09-24T13:38:20;101373.19;;;13.35;70.44
70011;BME280;59543;37.950;-122.338;2022-09-24T13:40:55;101375.91;;;13.35;70.19
70011;BME280;59543;37.950;-122.338;2022-09-24T13:46:18;101379.75;;;13.32;70.50
70011;BME280;59543;37.950;-122.338;2022-09-24T13:48:55;101376.06;;;13.33;70.58
70011;BME280;59543;37.950;-122.338;2022-09-24T13:51:28;101378.91;;;13.32;70.69
70011;BME280;59543;37.950;-122.338;2022-09-24T13:54:06;101380.78;;;13.21;70.85
70011;BME280;59543;37.950;-122.338;2022-09-24T13:56:37;101386.47;;;13.28;70.98
70011;BME280;59543;37.950;-122.338;2022-09-24T13:59:09;101394.56;;;13.28;71.23
70011;BME280;59543;37.950;-122.338;2022-09-24T14:01:39;101397.97;;;13.30;71.03
70011;BME280;59543;37.950;-122.338;2022-09-24T14:04:15;101397.38;;;13.36;71.12
70011;BME280;59543;37.950;-122.338;2022-09-24T14:06:44;101403.09;;;13.23;71.43
70011;BME280;59543;37.950;-122.338;2022-09-24T14:09:32;101409.50;;;13.22;71.50
70011;BME280;59543;37.950;-122.338;2022-09-24T14:12:13;101402.84;;;13.17;71.59
70011;BME280;59543;37.950;-122.338;2022-09-24T14:14:44;101414.91;;;13.22;71.95
70011;BME280;59543;37.950;-122.338;2022-09-24T14:17:14;101414.03;;;13.32;71.88
70011;BME280;59543;37.950;-122.338;2022-09-24T14:19:41;101421.72;;;13.26;72.19